sensor_id;sensor_type;location;lat;lon;timestamp;temperature;humidity
54178;DHT22;40085;53.004;6.770;2022-07-29T00:02:08;14.90;99.90
54178;DHT22;40085;53.004;6.770;2022-07-29T00:04:35;14.90;99.90
54178;DHT22;40085;53.004;6.770;2022-07-29T00:07:01;14.90;99.90
54178;DHT22;40085;53.004;6.770;2022-07-29T00:09:26;14.90;99.90
54178;DHT22;40085;53.004;6.770;2022-07-29T00:11:53;14.90;99.90
54178;DHT22;40085;53.004;6.770;2022-07-29T00:14:20;14.90;99.90
54178;DHT22;40085;53.004;6.770;2022-07-29T00:16:46;14.90;99.90
54178;DHT22;40085;53.004;6.770;2022-07-29T00:19:11;14.80;99.90
54178;DHT22;40085;53.004;6.770;2022-07-29T00:21:37;14.80;99.90
54178;DHT22;40085;53.004;6.770;2022-07-29T00:24:03;14.80;99.90
54178;DHT22;40085;53.004;6.770;2022-07-29T00:26:29;14.80;99.90
54178;DHT22;40085;53.004;6.770;2022-07-29T00:29:02;14.80;99.90
54178;DHT22;40085;53.004;6.770;2022-07-29T00:31:27;14.80;99.90
54178;DHT22;40085;53.004;6.770;2022-07-29T00:33:53;14.80;99.90
54178;DHT22;40085;53.004;6.770;2022-07-29T00:36:19;14.80;99.90
54178;DHT22;40085;53.004;6.770;2022-07-29T00:38:47;14.80;99.90
54178;DHT22;40085;53.004;6.770;2022-07-29T00:41:14;14.80;99.90
54178;DHT22;40085;53.004;6.770;2022-07-29T00:43:39;14.80;99.90
54178;DHT22;40085;53.004;6.770;2022-07-29T00:46:06;14.80;99.90
54178;DHT22;40085;53.004;6.770;2022-07-29T00:48:32;14.80;99.90
54178;DHT22;40085;53.004;6.770;2022-07-29T00:50:59;14.60;99.90
54178;DHT22;40085;53.004;6.770;2022-07-29T00:53:25;14.80;99.90
54178;DHT22;40085;53.004;6.770;2022-07-29T00:55:54;14.80;99.90
54178;DHT22;40085;53.004;6.770;2022-07-29T00:58:20;14.80;99.90
54178;DHT22;40085;53.004;6.770;2022-07-29T01:00:46;15.00;99.90
54178;DHT22;40085;53.004;6.770;2022-07-29T01:03:12;14.80;99.90
54178;DHT22;40085;53.004;6.770;2022-07-29T01:05:40;14.80;99.90
54178;DHT22;40085;53.004;6.770;2022-07-29T01:08:07;14.70;99.90
54178;DHT22;40085;53.004;6.770;2022-07-29T01:10:33;14.80;99.90
54178;DHT22;40085;53.004;6.770;2022-07-29T01:13:02;14.80;99.90
54178;DHT22;40085;53.004;6.770;2022-07-29T01:15:28;14.70;99.90
54178;DHT22;40085;53.004;6.770;2022-07-29T01:18:18;14.70;99.90
54178;DHT22;40085;53.004;6.770;2022-07-29T01:23:51;14.70;99.90
54178;DHT22;40085;53.004;6.770;2022-07-29T01:26:44;14.70;99.90
54178;DHT22;40085;53.004;6.770;2022-07-29T01:29:24;14.70;99.90
54178;DHT22;40085;53.004;6.770;2022-07-29T01:32:08;14.70;99.90
54178;DHT22;40085;53.004;6.770;2022-07-29T01:37:45;14.70;99.90
54178;DHT22;40085;53.004;6.770;2022-07-29T01:40:20;14.70;99.90
54178;DHT22;40085;53.004;6.770;2022-07-29T01:42:52;14.70;99.90
54178;DHT22;40085;53.004;6.770;2022-07-29T01:45:38;14.70;99.90
54178;DHT22;40085;53.004;6.770;2022-07-29T01:48:34;14.70;99.90
54178;DHT22;40085;53.004;6.770;2022-07-29T01:51:05;14.70;99.90
54178;DHT22;40085;53.004;6.770;2022-07-29T01:53:41;14.70;99.90
54178;DHT22;40085;53.004;6.770;2022-07-29T01:56:09;14.80;99.90
54178;DHT22;40085;53.004;6.770;2022-07-29T01:58:39;14.70;99.90
54178;DHT22;40085;53.004;6.770;2022-07-29T02:01:06;14.70;99.90
54178;DHT22;40085;53.004;6.770;2022-07-29T02:03:34;14.70;99.90
54178;DHT22;40085;53.004;6.770;2022-07-29T02:06:02;14.70;99.90
54178;DHT22;40085;53.004;6.770;2022-07-29T02:08:30;14.70;99.90
54178;DHT22;40085;53.004;6.770;2022-07-29T02:10:59;14.70;99.90
54178;DHT22;40085;53.004;6.770;2022-07-29T02:13:26;14.70;99.90
54178;DHT22;40085;53.004;6.770;2022-07-29T02:15:54;14.70;99.90
54178;DHT22;40085;53.004;6.770;2022-07-29T02:18:22;14.70;99.90
54178;DHT22;40085;53.004;6.770;2022-07-29T02:20:52;14.60;99.90
54178;DHT22;40085;53.004;6.770;2022-07-29T02:23:21;14.70;99.90
54178;DHT22;40085;53.004;6.770;2022-07-29T02:25:49;14.70;99.90
54178;DHT22;40085;53.004;6.770;2022-07-29T02:28:17;14.70;99.90
54178;DHT22;40085;53.004;6.770;2022-07-29T02:30:44;14.70;99.90
54178;DHT22;40085;53.004;6.770;2022-07-29T02:33:13;14.60;99.90
54178;DHT22;40085;53.004;6.770;2022-07-29T02:35:40;14.60;99.90
54178;DHT22;40085;53.004;6.770;2022-07-29T02:38:09;14.60;99.90
54178;DHT22;40085;53.004;6.770;2022-07-29T02:40:57;14.60;99.90
54178;DHT22;40085;53.004;6.770;2022-07-29T02:43:24;14.60;99.90
54178;DHT22;40085;53.004;6.770;2022-07-29T02:45:52;14.60;99.90
54178;DHT22;40085;53.004;6.770;2022-07-29T02:48:25;14.60;99.90
54178;DHT22;40085;53.004;6.770;2022-07-29T02:51:01;14.60;99.90
54178;DHT22;40085;53.004;6.770;2022-07-29T02:53:32;14.60;99.90
54178;DHT22;40085;53.004;6.770;2022-07-29T02:56:10;14.50;99.90
54178;DHT22;40085;53.004;6.770;2022-07-29T02:58:51;14.60;99.90
54178;DHT22;40085;53.004;6.770;2022-07-29T03:01:26;14.60;99.90
54178;DHT22;40085;53.004;6.770;2022-07-29T03:03:54;14.60;99.90
54178;DHT22;40085;53.004;6.770;2022-07-29T03:06:22;14.60;99.90
54178;DHT22;40085;53.004;6.770;2022-07-29T03:08:49;14.50;99.90
54178;DHT22;40085;53.004;6.770;2022-07-29T03:11:16;14.50;99.90
54178;DHT22;40085;53.004;6.770;2022-07-29T03:13:43;14.60;99.90
54178;DHT22;40085;53.004;6.770;2022-07-29T03:16:09;14.50;99.90
54178;DHT22;40085;53.004;6.770;2022-07-29T03:18:36;14.50;99.90
54178;DHT22;40085;53.004;6.770;2022-07-29T03:21:03;14.50;99.90
54178;DHT22;40085;53.004;6.770;2022-07-29T03:23:29;14.50;99.90
54178;DHT22;40085;53.004;6.770;2022-07-29T03:25:55;14.50;99.90
54178;DHT22;40085;53.004;6.770;2022-07-29T03:28:22;14.40;99.90
54178;DHT22;40085;53.004;6.770;2022-07-29T03:30:48;14.50;99.90
54178;DHT22;40085;53.004;6.770;2022-07-29T03:33:14;14.40;99.90
54178;DHT22;40085;53.004;6.770;2022-07-29T03:35:40;14.40;99.90
54178;DHT22;40085;53.004;6.770;2022-07-29T03:38:05;14.40;99.90
54178;DHT22;40085;53.004;6.770;2022-07-29T03:40:35;14.40;99.90
54178;DHT22;40085;53.004;6.770;2022-07-29T03:43:02;14.40;99.90
54178;DHT22;40085;53.004;6.770;2022-07-29T03:45:30;14.40;99.90
54178;DHT22;40085;53.004;6.770;2022-07-29T03:48:01;14.40;99.90
54178;DHT22;40085;53.004;6.770;2022-07-29T03:50:29;14.50;99.90
54178;DHT22;40085;53.004;6.770;2022-07-29T03:52:55;14.40;99.90
54178;DHT22;40085;53.004;6.770;2022-07-29T03:55:21;14.40;99.90
54178;DHT22;40085;53.004;6.770;2022-07-29T03:57:48;14.40;99.90
54178;DHT22;40085;53.004;6.770;2022-07-29T04:00:15;14.40;99.90
54178;DHT22;40085;53.004;6.770;2022-07-29T04:02:41;14.40;99.90
54178;DHT22;40085;53.004;6.770;2022-07-29T04:05:13;12.70;99.90
54178;DHT22;40085;53.004;6.770;2022-07-29T04:07:40;14.60;99.90
54178;DHT22;40085;53.004;6.770;2022-07-29T04:10:06;14.40;99.90
54178;DHT22;40085;53.004;6.770;2022-07-29T04:12:32;14.40;99.90
54178;DHT22;40085;53.004;6.770;2022-07-29T04:14:58;14.40;99.90
54178;DHT22;40085;53.004;6.770;2022-07-29T04:17:23;14.40;99.90
54178;DHT22;40085;53.004;6.770;2022-07-29T04:19:49;14.40;99.90
54178;DHT22;40085;53.004;6.770;2022-07-29T04:22:15;14.40;99.90
54178;DHT22;40085;53.004;6.770;2022-07-29T04:24:40;14.40;99.90
54178;DHT22;40085;53.004;6.770;2022-07-29T04:27:06;14.40;99.90
54178;DHT22;40085;53.004;6.770;2022-07-29T04:29:32;14.40;99.90
54178;DHT22;40085;53.004;6.770;2022-07-29T04:31:57;14.40;99.90
54178;DHT22;40085;53.004;6.770;2022-07-29T04:34:23;14.40;99.90
54178;DHT22;40085;53.004;6.770;2022-07-29T04:36:48;14.40;99.90
54178;DHT22;40085;53.004;6.770;2022-07-29T04:39:14;14.30;99.90
54178;DHT22;40085;53.004;6.770;2022-07-29T04:41:40;14.30;99.90
54178;DHT22;40085;53.004;6.770;2022-07-29T04:44:05;14.40;99.90
54178;DHT22;40085;53.004;6.770;2022-07-29T04:46:31;14.30;99.90
54178;DHT22;40085;53.004;6.770;2022-07-29T04:48:57;14.40;99.90
54178;DHT22;40085;53.004;6.770;2022-07-29T04:51:23;14.30;99.90
54178;DHT22;40085;53.004;6.770;2022-07-29T04:53:49;14.40;99.90
54178;DHT22;40085;53.004;6.770;2022-07-29T04:56:14;14.50;99.90
54178;DHT22;40085;53.004;6.770;2022-07-29T04:58:40;14.40;99.90
54178;DHT22;40085;53.004;6.770;2022-07-29T05:01:05;14.40;99.90
54178;DHT22;40085;53.004;6.770;2022-07-29T05:03:31;14.50;99.90
54178;DHT22;40085;53.004;6.770;2022-07-29T05:05:57;14.60;99.90
54178;DHT22;40085;53.004;6.770;2022-07-29T05:08:22;14.50;99.90
54178;DHT22;40085;53.004;6.770;2022-07-29T05:10:48;14.60;99.90
54178;DHT22;40085;53.004;6.770;2022-07-29T05:13:14;14.60;99.90
54178;DHT22;40085;53.004;6.770;2022-07-29T05:15:39;14.60;99.90
54178;DHT22;40085;53.004;6.770;2022-07-29T05:18:05;14.70;99.90
54178;DHT22;40085;53.004;6.770;2022-07-29T05:20:31;14.70;99.90
54178;DHT22;40085;53.004;6.770;2022-07-29T05:22:59;14.70;99.90
54178;DHT22;40085;53.004;6.770;2022-07-29T05:25:26;14.80;99.90
54178;DHT22;40085;53.004;6.770;2022-07-29T05:27:52;14.80;99.90
54178;DHT22;40085;53.004;6.770;2022-07-29T05:30:18;14.80;99.90
54178;DHT22;40085;53.004;6.770;2022-07-29T05:32:44;14.80;99.90
54178;DHT22;40085;53.004;6.770;2022-07-29T05:35:10;14.80;99.90
54178;DHT22;40085;53.004;6.770;2022-07-29T05:37:35;15.10;99.90
54178;DHT22;40085;53.004;6.770;2022-07-29T05:40:02;14.90;99.90
54178;DHT22;40085;53.004;6.770;2022-07-29T05:42:28;14.90;99.90
54178;DHT22;40085;53.004;6.770;2022-07-29T05:44:54;14.90;99.90
54178;DHT22;40085;53.004;6.770;2022-07-29T05:47:20;14.90;99.90
54178;DHT22;40085;53.004;6.770;2022-07-29T05:49:46;14.90;99.90
54178;DHT22;40085;53.004;6.770;2022-07-29T05:52:12;15.00;99.90
54178;DHT22;40085;53.004;6.770;2022-07-29T05:54:40;15.00;99.90
54178;DHT22;40085;53.004;6.770;2022-07-29T05:57:06;15.10;99.90
54178;DHT22;40085;53.004;6.770;2022-07-29T05:59:38;15.10;99.90
54178;DHT22;40085;53.004;6.770;2022-07-29T06:02:04;15.10;99.90
54178;DHT22;40085;53.004;6.770;2022-07-29T06:04:33;15.10;99.90
54178;DHT22;40085;53.004;6.770;2022-07-29T06:06:59;15.10;99.90
54178;DHT22;40085;53.004;6.770;2022-07-29T06:09:24;15.20;99.90
54178;DHT22;40085;53.004;6.770;2022-07-29T06:11:51;15.20;99.90
54178;DHT22;40085;53.004;6.770;2022-07-29T06:14:18;15.20;99.90
54178;DHT22;40085;53.004;6.770;2022-07-29T06:16:43;15.30;99.90
54178;DHT22;40085;53.004;6.770;2022-07-29T06:19:09;15.30;99.90
54178;DHT22;40085;53.004;6.770;2022-07-29T06:21:35;15.50;99.90
54178;DHT22;40085;53.004;6.770;2022-07-29T06:24:00;15.40;99.90
54178;DHT22;40085;53.004;6.770;2022-07-29T06:26:26;15.60;99.90
54178;DHT22;40085;53.004;6.770;2022-07-29T06:28:52;15.70;99.90
54178;DHT22;40085;53.004;6.770;2022-07-29T06:31:17;15.70;99.90
54178;DHT22;40085;53.004;6.770;2022-07-29T06:33:43;15.70;99.90
54178;DHT22;40085;53.004;6.770;2022-07-29T06:36:08;15.70;99.90
54178;DHT22;40085;53.004;6.770;2022-07-29T06:38:34;15.80;99.90
54178;DHT22;40085;53.004;6.770;2022-07-29T06:41:00;16.20;99.90
54178;DHT22;40085;53.004;6.770;2022-07-29T06:43:35;16.20;99.90
54178;DHT22;40085;53.004;6.770;2022-07-29T06:46:08;16.10;99.90
54178;DHT22;40085;53.004;6.770;2022-07-29T06:48:34;16.00;99.90
54178;DHT22;40085;53.004;6.770;2022-07-29T06:51:02;16.00;99.90
54178;DHT22;40085;53.004;6.770;2022-07-29T06:53:29;15.90;99.90
54178;DHT22;40085;53.004;6.770;2022-07-29T06:55:55;15.80;99.90
54178;DHT22;40085;53.004;6.770;2022-07-29T06:58:20;15.90;99.90
54178;DHT22;40085;53.004;6.770;2022-07-29T07:00:47;15.90;99.90
54178;DHT22;40085;53.004;6.770;2022-07-29T07:03:14;15.90;99.90
54178;DHT22;40085;53.004;6.770;2022-07-29T07:05:40;16.00;99.90
54178;DHT22;40085;53.004;6.770;2022-07-29T07:08:06;16.00;99.90
54178;DHT22;40085;53.004;6.770;2022-07-29T07:10:32;16.20;99.90
54178;DHT22;40085;53.004;6.770;2022-07-29T07:12:59;16.40;99.90
54178;DHT22;40085;53.004;6.770;2022-07-29T07:15:25;16.10;99.90
54178;DHT22;40085;53.004;6.770;2022-07-29T07:17:51;16.20;99.90
54178;DHT22;40085;53.004;6.770;2022-07-29T07:20:17;16.20;99.90
54178;DHT22;40085;53.004;6.770;2022-07-29T07:22:43;16.20;99.90
54178;DHT22;40085;53.004;6.770;2022-07-29T07:25:09;16.20;99.90
54178;DHT22;40085;53.004;6.770;2022-07-29T07:27:36;16.30;99.90
54178;DHT22;40085;53.004;6.770;2022-07-29T07:30:04;16.40;99.90
54178;DHT22;40085;53.004;6.770;2022-07-29T07:32:31;16.40;99.90
54178;DHT22;40085;53.004;6.770;2022-07-29T07:34:57;16.50;99.90
54178;DHT22;40085;53.004;6.770;2022-07-29T07:37:24;16.60;99.90
54178;DHT22;40085;53.004;6.770;2022-07-29T07:39:51;16.60;99.90
54178;DHT22;40085;53.004;6.770;2022-07-29T07:42:17;16.70;99.90
54178;DHT22;40085;53.004;6.770;2022-07-29T07:44:43;16.80;99.90
54178;DHT22;40085;53.004;6.770;2022-07-29T07:47:09;16.90;99.90
54178;DHT22;40085;53.004;6.770;2022-07-29T07:49:34;16.90;99.90
54178;DHT22;40085;53.004;6.770;2022-07-29T07:52:00;17.00;99.90
54178;DHT22;40085;53.004;6.770;2022-07-29T07:54:25;17.10;99.90
54178;DHT22;40085;53.004;6.770;2022-07-29T07:56:51;17.20;99.90
54178;DHT22;40085;53.004;6.770;2022-07-29T07:59:17;17.30;99.90
54178;DHT22;40085;53.004;6.770;2022-07-29T08:01:42;17.50;99.90
54178;DHT22;40085;53.004;6.770;2022-07-29T08:04:08;17.30;99.90
54178;DHT22;40085;53.004;6.770;2022-07-29T08:06:34;17.40;99.90
54178;DHT22;40085;53.004;6.770;2022-07-29T08:09:02;17.40;99.90
54178;DHT22;40085;53.004;6.770;2022-07-29T08:11:28;17.50;99.90
54178;DHT22;40085;53.004;6.770;2022-07-29T08:13:54;17.60;99.90
54178;DHT22;40085;53.004;6.770;2022-07-29T08:16:20;17.60;99.90
54178;DHT22;40085;53.004;6.770;2022-07-29T08:18:46;17.80;99.90
54178;DHT22;40085;53.004;6.770;2022-07-29T08:21:13;17.80;99.90
54178;DHT22;40085;53.004;6.770;2022-07-29T08:23:39;17.80;99.90
54178;DHT22;40085;53.004;6.770;2022-07-29T08:26:10;17.70;99.90
54178;DHT22;40085;53.004;6.770;2022-07-29T08:28:39;17.80;99.90
54178;DHT22;40085;53.004;6.770;2022-07-29T08:31:05;17.80;99.90
54178;DHT22;40085;53.004;6.770;2022-07-29T08:33:32;17.70;99.90
54178;DHT22;40085;53.004;6.770;2022-07-29T08:35:58;17.80;99.90
54178;DHT22;40085;53.004;6.770;2022-07-29T08:38:24;17.90;99.90
54178;DHT22;40085;53.004;6.770;2022-07-29T08:40:52;17.90;99.90
54178;DHT22;40085;53.004;6.770;2022-07-29T08:43:18;17.80;99.90
54178;DHT22;40085;53.004;6.770;2022-07-29T08:45:46;17.70;99.90
54178;DHT22;40085;53.004;6.770;2022-07-29T08:48:13;17.70;99.90
54178;DHT22;40085;53.004;6.770;2022-07-29T08:50:41;17.70;99.90
54178;DHT22;40085;53.004;6.770;2022-07-29T08:53:10;17.70;99.90
54178;DHT22;40085;53.004;6.770;2022-07-29T08:55:40;17.70;99.90
54178;DHT22;40085;53.004;6.770;2022-07-29T08:58:08;17.70;99.90
54178;DHT22;40085;53.004;6.770;2022-07-29T09:00:36;17.80;99.90
54178;DHT22;40085;53.004;6.770;2022-07-29T09:03:04;17.90;99.90
54178;DHT22;40085;53.004;6.770;2022-07-29T09:05:31;17.90;99.90
54178;DHT22;40085;53.004;6.770;2022-07-29T09:07:58;17.90;99.90
54178;DHT22;40085;53.004;6.770;2022-07-29T09:10:24;17.80;99.90
54178;DHT22;40085;53.004;6.770;2022-07-29T09:12:51;17.90;99.90
54178;DHT22;40085;53.004;6.770;2022-07-29T09:15:17;18.00;99.90
54178;DHT22;40085;53.004;6.770;2022-07-29T09:17:45;18.00;99.90
54178;DHT22;40085;53.004;6.770;2022-07-29T09:22:41;18.20;99.90
54178;DHT22;40085;53.004;6.770;2022-07-29T09:25:07;18.40;99.90
54178;DHT22;40085;53.004;6.770;2022-07-29T09:27:33;18.50;99.90
54178;DHT22;40085;53.004;6.770;2022-07-29T09:30:08;18.50;99.90
54178;DHT22;40085;53.004;6.770;2022-07-29T09:32:57;18.50;99.90
54178;DHT22;40085;53.004;6.770;2022-07-29T09:35:25;18.50;99.90
54178;DHT22;40085;53.004;6.770;2022-07-29T09:37:51;18.60;99.90
54178;DHT22;40085;53.004;6.770;2022-07-29T09:40:23;18.60;99.90
54178;DHT22;40085;53.004;6.770;2022-07-29T09:42:50;18.60;99.90
54178;DHT22;40085;53.004;6.770;2022-07-29T09:47:52;18.60;99.90
54178;DHT22;40085;53.004;6.770;2022-07-29T09:50:20;18.60;99.90
54178;DHT22;40085;53.004;6.770;2022-07-29T09:52:52;18.60;99.90
54178;DHT22;40085;53.004;6.770;2022-07-29T09:55:19;18.70;99.90
54178;DHT22;40085;53.004;6.770;2022-07-29T09:57:46;18.70;99.90
54178;DHT22;40085;53.004;6.770;2022-07-29T10:00:17;18.60;99.90
54178;DHT22;40085;53.004;6.770;2022-07-29T10:02:45;18.50;99.90
54178;DHT22;40085;53.004;6.770;2022-07-29T10:05:20;18.50;99.90
54178;DHT22;40085;53.004;6.770;2022-07-29T10:07:56;18.40;99.90
54178;DHT22;40085;53.004;6.770;2022-07-29T10:10:25;18.50;99.90
54178;DHT22;40085;53.004;6.770;2022-07-29T10:12:57;18.50;99.90
54178;DHT22;40085;53.004;6.770;2022-07-29T10:15:31;18.50;99.90
54178;DHT22;40085;53.004;6.770;2022-07-29T10:17:58;18.70;99.90
54178;DHT22;40085;53.004;6.770;2022-07-29T10:20:26;18.70;99.90
54178;DHT22;40085;53.004;6.770;2022-07-29T10:22:52;18.80;99.90
54178;DHT22;40085;53.004;6.770;2022-07-29T10:25:20;18.90;99.90
54178;DHT22;40085;53.004;6.770;2022-07-29T10:27:46;19.00;99.90
54178;DHT22;40085;53.004;6.770;2022-07-29T10:30:15;19.20;99.90
54178;DHT22;40085;53.004;6.770;2022-07-29T10:35:54;19.40;99.90
54178;DHT22;40085;53.004;6.770;2022-07-29T10:44:12;19.50;99.90
54178;DHT22;40085;53.004;6.770;2022-07-29T10:46:40;19.60;99.90
54178;DHT22;40085;53.004;6.770;2022-07-29T10:49:22;19.80;99.90
54178;DHT22;40085;53.004;6.770;2022-07-29T10:54:39;20.10;99.90
54178;DHT22;40085;53.004;6.770;2022-07-29T10:59:43;20.10;99.90
54178;DHT22;40085;53.004;6.770;2022-07-29T11:07:23;20.10;99.90
54178;DHT22;40085;53.004;6.770;2022-07-29T11:15:07;20.20;99.90
54178;DHT22;40085;53.004;6.770;2022-07-29T11:28:42;20.30;99.90
54178;DHT22;40085;53.004;6.770;2022-07-29T11:31:16;20.20;99.90
54178;DHT22;40085;53.004;6.770;2022-07-29T11:33:42;20.20;99.90
54178;DHT22;40085;53.004;6.770;2022-07-29T11:36:13;20.20;99.90
54178;DHT22;40085;53.004;6.770;2022-07-29T11:38:39;20.20;99.90
54178;DHT22;40085;53.004;6.770;2022-07-29T11:43:53;20.30;99.90
54178;DHT22;40085;53.004;6.770;2022-07-29T11:46:55;20.30;99.90
54178;DHT22;40085;53.004;6.770;2022-07-29T11:49:23;20.40;99.90
54178;DHT22;40085;53.004;6.770;2022-07-29T11:51:53;20.40;99.90
54178;DHT22;40085;53.004;6.770;2022-07-29T11:54:24;20.60;99.90
54178;DHT22;40085;53.004;6.770;2022-07-29T11:56:52;20.70;99.90
54178;DHT22;40085;53.004;6.770;2022-07-29T11:59:19;20.80;99.90
54178;DHT22;40085;53.004;6.770;2022-07-29T12:01:55;20.90;99.90
54178;DHT22;40085;53.004;6.770;2022-07-29T12:04:21;21.00;99.90
54178;DHT22;40085;53.004;6.770;2022-07-29T12:06:50;21.00;99.90
54178;DHT22;40085;53.004;6.770;2022-07-29T12:09:17;21.00;99.90
54178;DHT22;40085;53.004;6.770;2022-07-29T12:11:43;21.00;99.90
54178;DHT22;40085;53.004;6.770;2022-07-29T12:14:08;21.10;99.90
54178;DHT22;40085;53.004;6.770;2022-07-29T12:16:37;21.10;99.90
54178;DHT22;40085;53.004;6.770;2022-07-29T12:19:04;21.20;99.90
54178;DHT22;40085;53.004;6.770;2022-07-29T12:21:51;21.30;99.90
54178;DHT22;40085;53.004;6.770;2022-07-29T12:24:17;21.30;99.90
54178;DHT22;40085;53.004;6.770;2022-07-29T12:26:57;21.40;99.90
54178;DHT22;40085;53.004;6.770;2022-07-29T12:29:24;21.40;99.90
54178;DHT22;40085;53.004;6.770;2022-07-29T12:31:53;21.50;99.90
54178;DHT22;40085;53.004;6.770;2022-07-29T12:34:22;21.50;99.90
54178;DHT22;40085;53.004;6.770;2022-07-29T12:36:48;21.50;99.90
54178;DHT22;40085;53.004;6.770;2022-07-29T12:39:16;21.60;99.90
54178;DHT22;40085;53.004;6.770;2022-07-29T12:41:42;21.60;99.90
54178;DHT22;40085;53.004;6.770;2022-07-29T12:44:08;21.60;99.90
54178;DHT22;40085;53.004;6.770;2022-07-29T12:46:34;21.60;99.90
54178;DHT22;40085;53.004;6.770;2022-07-29T12:49:00;21.60;99.90
54178;DHT22;40085;53.004;6.770;2022-07-29T12:51:33;21.60;99.90
54178;DHT22;40085;53.004;6.770;2022-07-29T12:54:17;21.80;99.90
54178;DHT22;40085;53.004;6.770;2022-07-29T12:56:44;21.80;99.90
54178;DHT22;40085;53.004;6.770;2022-07-29T12:59:21;21.90;99.90
54178;DHT22;40085;53.004;6.770;2022-07-29T13:01:49;22.00;99.90
54178;DHT22;40085;53.004;6.770;2022-07-29T13:04:29;22.10;99.90
54178;DHT22;40085;53.004;6.770;2022-07-29T13:07:03;22.20;99.90
54178;DHT22;40085;53.004;6.770;2022-07-29T13:09:43;22.30;99.90
54178;DHT22;40085;53.004;6.770;2022-07-29T13:12:11;22.40;99.90
54178;DHT22;40085;53.004;6.770;2022-07-29T13:14:40;22.40;99.90
54178;DHT22;40085;53.004;6.770;2022-07-29T13:17:13;22.60;99.90
54178;DHT22;40085;53.004;6.770;2022-07-29T13:19:43;22.70;99.90
54178;DHT22;40085;53.004;6.770;2022-07-29T13:22:13;22.70;99.90
54178;DHT22;40085;53.004;6.770;2022-07-29T13:24:57;22.80;99.90
54178;DHT22;40085;53.004;6.770;2022-07-29T13:27:24;22.90;99.90
54178;DHT22;40085;53.004;6.770;2022-07-29T13:29:51;22.90;99.90
54178;DHT22;40085;53.004;6.770;2022-07-29T13:32:18;22.90;99.90
54178;DHT22;40085;53.004;6.770;2022-07-29T13:34:43;22.90;99.90
54178;DHT22;40085;53.004;6.770;2022-07-29T13:37:09;23.00;99.90
54178;DHT22;40085;53.004;6.770;2022-07-29T13:39:35;23.20;99.90
54178;DHT22;40085;53.004;6.770;2022-07-29T13:42:03;23.30;99.90
54178;DHT22;40085;53.004;6.770;2022-07-29T13:44:29;23.40;99.90
54178;DHT22;40085;53.004;6.770;2022-07-29T13:46:55;23.60;99.90
54178;DHT22;40085;53.004;6.770;2022-07-29T13:49:21;23.60;99.90
54178;DHT22;40085;53.004;6.770;2022-07-29T13:51:48;23.70;99.90
54178;DHT22;40085;53.004;6.770;2022-07-29T13:54:14;23.70;99.90
54178;DHT22;40085;53.004;6.770;2022-07-29T13:56:40;23.70;99.90
54178;DHT22;40085;53.004;6.770;2022-07-29T13:59:06;23.80;99.90
54178;DHT22;40085;53.004;6.770;2022-07-29T14:01:36;23.90;99.90
54178;DHT22;40085;53.004;6.770;2022-07-29T14:04:02;23.90;99.90
54178;DHT22;40085;53.004;6.770;2022-07-29T14:06:28;24.10;99.90
54178;DHT22;40085;53.004;6.770;2022-07-29T14:08:53;24.10;99.90
54178;DHT22;40085;53.004;6.770;2022-07-29T14:11:19;24.10;99.90
54178;DHT22;40085;53.004;6.770;2022-07-29T14:13:45;24.20;99.90
54178;DHT22;40085;53.004;6.770;2022-07-29T14:16:11;24.10;99.90
54178;DHT22;40085;53.004;6.770;2022-07-29T14:18:37;24.10;99.90
54178;DHT22;40085;53.004;6.770;2022-07-29T14:21:02;24.00;99.90
54178;DHT22;40085;53.004;6.770;2022-07-29T14:23:28;24.00;99.90
54178;DHT22;40085;53.004;6.770;2022-07-29T14:25:54;23.90;99.90
54178;DHT22;40085;53.004;6.770;2022-07-29T14:28:20;23.90;99.90
54178;DHT22;40085;53.004;6.770;2022-07-29T14:30:46;23.80;99.90
54178;DHT22;40085;53.004;6.770;2022-07-29T14:33:12;23.80;99.90
54178;DHT22;40085;53.004;6.770;2022-07-29T14:35:37;23.80;99.90
54178;DHT22;40085;53.004;6.770;2022-07-29T14:38:03;23.70;99.90
54178;DHT22;40085;53.004;6.770;2022-07-29T14:40:29;23.50;99.90
54178;DHT22;40085;53.004;6.770;2022-07-29T14:42:55;23.60;99.90
54178;DHT22;40085;53.004;6.770;2022-07-29T14:45:20;23.80;99.90
54178;DHT22;40085;53.004;6.770;2022-07-29T14:47:46;24.20;99.90
54178;DHT22;40085;53.004;6.770;2022-07-29T14:50:12;24.40;99.90
54178;DHT22;40085;53.004;6.770;2022-07-29T14:52:38;24.80;99.90
54178;DHT22;40085;53.004;6.770;2022-07-29T14:55:04;24.90;99.90
54178;DHT22;40085;53.004;6.770;2022-07-29T14:57:31;25.00;99.90
54178;DHT22;40085;53.004;6.770;2022-07-29T14:59:57;25.10;99.90
54178;DHT22;40085;53.004;6.770;2022-07-29T15:02:22;25.20;99.90
54178;DHT22;40085;53.004;6.770;2022-07-29T15:04:48;25.20;99.40
54178;DHT22;40085;53.004;6.770;2022-07-29T15:07:14;25.20;99.10
54178;DHT22;40085;53.004;6.770;2022-07-29T15:09:41;25.50;99.90
54178;DHT22;40085;53.004;6.770;2022-07-29T15:12:07;25.40;99.50
54178;DHT22;40085;53.004;6.770;2022-07-29T15:14:33;25.40;99.20
54178;DHT22;40085;53.004;6.770;2022-07-29T15:16:59;25.30;99.10
54178;DHT22;40085;53.004;6.770;2022-07-29T15:19:26;25.30;98.40
54178;DHT22;40085;53.004;6.770;2022-07-29T15:21:52;25.40;98.60
54178;DHT22;40085;53.004;6.770;2022-07-29T15:24:18;25.50;98.80
54178;DHT22;40085;53.004;6.770;2022-07-29T15:26:45;25.60;97.80
54178;DHT22;40085;53.004;6.770;2022-07-29T15:29:11;25.80;98.40
54178;DHT22;40085;53.004;6.770;2022-07-29T15:31:37;25.80;97.90
54178;DHT22;40085;53.004;6.770;2022-07-29T15:34:03;25.90;97.20
54178;DHT22;40085;53.004;6.770;2022-07-29T15:36:29;25.90;96.90
54178;DHT22;40085;53.004;6.770;2022-07-29T15:38:55;26.50;99.20
54178;DHT22;40085;53.004;6.770;2022-07-29T16:06:03;26.30;99.90
54178;DHT22;40085;53.004;6.770;2022-07-29T16:08:28;26.50;98.80
54178;DHT22;40085;53.004;6.770;2022-07-29T16:10:54;26.40;98.70
54178;DHT22;40085;53.004;6.770;2022-07-29T16:13:20;26.30;96.50
54178;DHT22;40085;53.004;6.770;2022-07-29T16:15:45;26.20;96.80
54178;DHT22;40085;53.004;6.770;2022-07-29T16:18:11;26.40;99.90
54178;DHT22;40085;53.004;6.770;2022-07-29T16:20:39;26.40;99.90
54178;DHT22;40085;53.004;6.770;2022-07-29T16:23:05;26.40;96.20
54178;DHT22;40085;53.004;6.770;2022-07-29T16:25:32;26.80;97.20
54178;DHT22;40085;53.004;6.770;2022-07-29T16:27:57;27.60;90.40
54178;DHT22;40085;53.004;6.770;2022-07-29T16:30:23;27.60;90.10
54178;DHT22;40085;53.004;6.770;2022-07-29T16:32:49;27.90;90.50
54178;DHT22;40085;53.004;6.770;2022-07-29T16:35:14;28.30;89.70
54178;DHT22;40085;53.004;6.770;2022-07-29T16:37:40;28.90;89.80
54178;DHT22;40085;53.004;6.770;2022-07-29T16:40:07;29.40;88.90
54178;DHT22;40085;53.004;6.770;2022-07-29T16:42:33;29.60;86.60
54178;DHT22;40085;53.004;6.770;2022-07-29T16:47:25;30.50;86.40
54178;DHT22;40085;53.004;6.770;2022-07-29T16:49:51;31.20;86.30
54178;DHT22;40085;53.004;6.770;2022-07-29T16:52:17;31.80;85.30